Terminal Aerodrome Forecast
Issued by NWS Wilmington, OH

Current Version | Previous Version | Graphics & Text | Print | Product List | Glossary On
Versions: 1 2 3 4 5 6 7 8 9 10 11 12 13 14 15 16 17 18 19
000
FTUS41 KILN 282100 AAB
TAFCMH
TAF AMD
KCMH 282104Z 2821/2918 33006KT P6SM SCT025 OVC035
     FM290100 33006KT P6SM BKN025
     FM291700 01004KT P6SM SCT030 BKN200=

USA.gov is the U.S. government's official web portal to all federal, state and local government web resources and services.